createdAt,value
2022-10-21T00:01:32.573Z,22.15
2022-10-21T00:04:02.203Z,20.50
2022-10-21T00:06:28.902Z,21.33
2022-10-21T00:08:55.813Z,22.00
2022-10-21T00:11:22.588Z,21.65
2022-10-21T00:13:49.298Z,23.25
2022-10-21T00:16:19.096Z,27.30
2022-10-21T00:18:47.534Z,28.58
2022-10-21T00:21:21.036Z,29.30
2022-10-21T00:23:50.049Z,25.77
2022-10-21T00:26:18.156Z,19.10
2022-10-21T00:28:45.204Z,22.83
2022-10-21T00:31:14.474Z,24.52
2022-10-21T00:33:42.212Z,19.83
2022-10-21T00:36:15.273Z,19.58
2022-10-21T00:38:44.584Z,18.95
2022-10-21T00:41:12.407Z,21.27
2022-10-21T00:43:58.026Z,15.00
2022-10-21T00:46:34.973Z,19.35
2022-10-21T00:49:06.308Z,21.15
2022-10-21T00:51:34.074Z,19.05
2022-10-21T00:54:02.607Z,19.77
2022-10-21T00:56:32.580Z,18.17
2022-10-21T00:59:02.901Z,21.63
2022-10-21T01:01:30.059Z,17.98
2022-10-21T01:03:57.065Z,16.13
2022-10-21T01:06:26.205Z,17.33
2022-10-21T01:08:54.979Z,17.60
2022-10-21T01:11:23.629Z,18.45
2022-10-21T01:14:03.041Z,19.25
2022-10-21T01:16:47.259Z,15.75
2022-10-21T01:19:33.306Z,17.10
2022-10-21T01:22:23.368Z,20.35
2022-10-21T01:25:10.290Z,22.75
2022-10-21T01:27:49.099Z,19.05
2022-10-21T01:30:37.537Z,20.73
2022-10-21T01:33:27.048Z,17.92
2022-10-21T01:36:16.116Z,14.80
2022-10-21T01:38:56.406Z,13.35
2022-10-21T01:41:34.366Z,10.23
2022-10-21T01:44:12.797Z,10.65
2022-10-21T01:46:45.118Z,9.30
2022-10-21T01:49:21.446Z,10.13
2022-10-21T01:51:48.193Z,13.23
2022-10-21T01:54:22.955Z,8.10
2022-10-21T01:56:50.804Z,10.32
2022-10-21T01:59:20.192Z,8.32
2022-10-21T02:01:48.214Z,6.35
2022-10-21T02:04:18.378Z,7.18
2022-10-21T02:06:45.363Z,6.75
2022-10-21T02:09:12.203Z,9.75
2022-10-21T02:11:40.463Z,8.07
2022-10-21T02:14:18.845Z,8.27
2022-10-21T02:16:46.837Z,6.38
2022-10-21T02:19:19.434Z,7.15
2022-10-21T02:21:49.798Z,9.00
2022-10-21T02:24:25.477Z,9.10
2022-10-21T02:26:52.265Z,12.30
2022-10-21T02:29:26.998Z,7.80
2022-10-21T02:32:15.003Z,8.95
2022-10-21T02:35:29.620Z,5.68
2022-10-21T02:38:06.592Z,6.75
2022-10-21T02:40:45.095Z,7.15
2022-10-21T02:43:41.985Z,6.18
2022-10-21T02:46:11.497Z,7.10
2022-10-21T02:48:40.132Z,7.88
2022-10-21T02:51:08.345Z,8.00
2022-10-21T02:53:35.439Z,9.75
2022-10-21T02:56:02.831Z,7.35
2022-10-21T02:58:29.834Z,8.23
2022-10-21T03:00:56.602Z,7.78
2022-10-21T03:03:23.373Z,5.18
2022-10-21T03:05:50.175Z,5.68
2022-10-21T03:08:17.172Z,8.20
2022-10-21T03:10:45.430Z,18.75
2022-10-21T03:13:14.695Z,7.00
2022-10-21T03:15:41.516Z,5.35
2022-10-21T03:18:08.215Z,6.93
2022-10-21T03:20:34.967Z,6.57
2022-10-21T03:23:01.653Z,5.88
2022-10-21T03:25:31.726Z,6.40
2022-10-21T03:28:02.112Z,7.13
2022-10-21T03:30:28.808Z,5.47
2022-10-21T03:32:55.536Z,8.50
2022-10-21T03:35:22.269Z,8.27
2022-10-21T03:37:49.082Z,5.32
2022-10-21T03:40:15.915Z,7.20
2022-10-21T03:42:42.673Z,8.00
2022-10-21T03:45:09.791Z,7.10
2022-10-21T03:47:36.493Z,8.25
2022-10-21T03:50:05.474Z,10.05
2022-10-21T03:52:34.485Z,12.23
2022-10-21T03:55:01.151Z,10.23
2022-10-21T03:57:27.869Z,10.38
2022-10-21T03:59:54.596Z,10.63
2022-10-21T04:02:21.293Z,8.68
2022-10-21T04:04:47.957Z,8.23
2022-10-21T04:07:14.634Z,8.13
2022-10-21T04:09:41.328Z,9.60
2022-10-21T04:12:08.086Z,21.52
2022-10-21T04:14:35.011Z,19.00
2022-10-21T04:17:07.523Z,26.60
2022-10-21T04:19:34.809Z,22.23
2022-10-21T04:22:01.552Z,22.83
2022-10-21T04:24:28.267Z,21.73
2022-10-21T04:26:55.046Z,25.33
2022-10-21T04:29:21.823Z,16.15
2022-10-21T04:31:48.713Z,17.38
2022-10-21T04:34:15.487Z,12.35
2022-10-21T04:36:42.185Z,21.48
2022-10-21T04:39:08.910Z,17.70
2022-10-21T04:41:35.819Z,15.43
2022-10-21T04:44:03.479Z,14.75
2022-10-21T04:46:30.971Z,14.25
2022-10-21T04:48:57.687Z,18.40
2022-10-21T04:51:24.657Z,14.73
2022-10-21T04:53:51.404Z,13.32
2022-10-21T04:56:18.120Z,10.65
2022-10-21T04:58:44.881Z,12.15
2022-10-21T05:01:11.688Z,10.10
2022-10-21T05:03:38.449Z,11.23
2022-10-21T05:06:05.375Z,13.50
2022-10-21T05:08:32.135Z,13.48
2022-10-21T05:11:00.729Z,18.20
2022-10-21T05:13:28.906Z,14.80
2022-10-21T05:16:00.661Z,16.80
2022-10-21T05:18:27.434Z,12.75
2022-10-21T05:20:55.535Z,15.48
2022-10-21T05:23:22.989Z,14.30
2022-10-21T05:25:51.870Z,12.82
2022-10-21T05:28:19.837Z,16.73
2022-10-21T05:30:47.075Z,14.38
2022-10-21T05:33:13.783Z,15.73
2022-10-21T05:35:40.553Z,17.30
2022-10-21T05:38:07.384Z,18.63
2022-10-21T05:40:34.303Z,18.67
2022-10-21T05:43:01.048Z,19.85
2022-10-21T05:45:27.993Z,15.10
2022-10-21T05:47:54.733Z,16.02
2022-10-21T05:50:21.610Z,14.65
2022-10-21T05:52:48.409Z,13.23
2022-10-21T05:55:15.510Z,14.55
2022-10-21T05:57:42.298Z,19.25
2022-10-21T06:00:09.930Z,15.60
2022-10-21T06:02:36.946Z,12.25
2022-10-21T06:05:04.110Z,13.23
2022-10-21T06:07:30.811Z,8.23
2022-10-21T06:09:58.077Z,13.23
2022-10-21T06:12:24.850Z,11.40
2022-10-21T06:14:51.789Z,25.90
2022-10-21T06:17:18.491Z,26.13
2022-10-21T06:19:48.646Z,28.58
2022-10-21T06:22:17.879Z,18.20
2022-10-21T06:24:44.606Z,13.68
2022-10-21T06:27:11.381Z,12.45
2022-10-21T06:29:38.102Z,10.15
2022-10-21T06:32:04.963Z,13.40
2022-10-21T06:34:31.643Z,12.63
2022-10-21T06:36:58.362Z,42.22
2022-10-21T06:39:25.225Z,28.90
2022-10-21T06:41:52.082Z,16.17
2022-10-21T06:44:18.947Z,11.35
2022-10-21T06:46:45.704Z,14.30
2022-10-21T06:49:12.512Z,11.88
2022-10-21T06:51:39.433Z,14.50
2022-10-21T06:54:06.274Z,15.32
2022-10-21T06:56:33.048Z,16.50
2022-10-21T06:58:59.830Z,14.73
2022-10-21T07:01:40.999Z,18.67
2022-10-21T07:04:15.014Z,20.95
2022-10-21T07:06:41.735Z,18.33
2022-10-21T07:09:09.237Z,17.25
2022-10-21T07:11:37.280Z,19.33
2022-10-21T07:14:04.617Z,15.43
2022-10-21T07:16:34.139Z,14.95
2022-10-21T07:19:01.000Z,17.42
2022-10-21T07:21:30.071Z,15.48
2022-10-21T07:23:59.543Z,15.88
2022-10-21T07:26:28.933Z,17.25
2022-10-21T07:28:58.555Z,10.45
2022-10-21T07:31:25.605Z,13.90
2022-10-21T07:33:53.244Z,12.55
2022-10-21T07:36:26.426Z,9.30
2022-10-21T07:38:55.694Z,8.07
2022-10-21T07:41:33.170Z,10.68
2022-10-21T07:44:00.346Z,8.65
2022-10-21T07:46:27.245Z,8.60
2022-10-21T07:48:54.251Z,10.07
2022-10-21T07:51:28.360Z,9.25
2022-10-21T07:53:57.125Z,16.52
2022-10-21T07:56:28.636Z,12.35
2022-10-21T07:58:55.584Z,11.45
2022-10-21T08:01:22.507Z,11.15
2022-10-21T08:03:49.795Z,10.82
2022-10-21T08:06:17.800Z,9.00
2022-10-21T08:08:45.501Z,9.60
2022-10-21T08:11:12.677Z,10.23
2022-10-21T08:13:41.697Z,7.05
2022-10-21T08:16:08.387Z,8.02
2022-10-21T08:18:35.134Z,6.97
2022-10-21T08:21:03.786Z,9.55
2022-10-21T08:23:31.127Z,8.95
2022-10-21T08:26:00.834Z,13.77
2022-10-21T08:28:29.719Z,7.22
2022-10-21T08:31:08.664Z,17.42
2022-10-21T08:33:36.334Z,11.43
2022-10-21T08:36:08.363Z,19.27
2022-10-21T08:38:35.757Z,11.20
2022-10-21T08:41:03.009Z,11.85
2022-10-21T08:43:33.183Z,14.35
2022-10-21T08:46:13.644Z,9.20
2022-10-21T08:48:47.805Z,5.75
2022-10-21T08:51:29.253Z,10.07
2022-10-21T08:56:26.139Z,7.63
2022-10-21T08:58:53.084Z,6.80
2022-10-21T09:02:06.314Z,7.25
2022-10-21T09:04:56.228Z,10.93
2022-10-21T09:07:55.216Z,8.07
2022-10-21T09:10:39.091Z,7.05
2022-10-21T09:13:22.852Z,9.70
2022-10-21T09:16:15.795Z,9.63
2022-10-21T09:19:03.744Z,7.25
2022-10-21T09:22:05.844Z,8.68
2022-10-21T09:24:53.598Z,9.38
2022-10-21T09:27:32.169Z,10.15
2022-10-21T09:30:08.023Z,10.77
2022-10-21T09:32:41.195Z,9.05
2022-10-21T09:35:26.975Z,7.68
2022-10-21T09:38:02.646Z,8.10
2022-10-21T09:40:31.462Z,14.07
2022-10-21T09:43:00.750Z,8.93
2022-10-21T09:45:41.425Z,7.10
2022-10-21T09:48:20.141Z,7.38
2022-10-21T09:50:51.269Z,6.70
2022-10-21T09:54:05.110Z,7.25
2022-10-21T09:56:39.226Z,7.35
2022-10-21T09:59:12.276Z,7.05
2022-10-21T10:01:41.414Z,5.65
2022-10-21T10:04:16.905Z,7.13
2022-10-21T10:06:45.072Z,7.28
2022-10-21T10:09:34.352Z,8.02
2022-10-21T10:12:30.913Z,7.93
2022-10-21T10:15:29.377Z,8.07
2022-10-21T10:18:07.491Z,6.15
2022-10-21T10:20:34.609Z,7.55
2022-10-21T10:23:01.305Z,6.65
2022-10-21T10:25:33.155Z,6.40
2022-10-21T10:28:10.840Z,5.13
2022-10-21T10:30:59.751Z,8.05
2022-10-21T10:33:36.266Z,7.68
2022-10-21T10:36:09.390Z,8.23
2022-10-21T10:38:41.577Z,7.30
2022-10-21T10:41:14.343Z,5.68
2022-10-21T10:43:53.662Z,7.80
2022-10-21T10:46:26.361Z,6.18
2022-10-21T10:48:56.048Z,6.78
2022-10-21T10:51:23.327Z,6.45
2022-10-21T10:54:12.041Z,8.48
2022-10-21T10:56:49.035Z,8.68
2022-10-21T10:59:38.582Z,10.82
2022-10-21T11:02:10.954Z,5.68
2022-10-21T11:04:45.314Z,6.95
2022-10-21T11:07:30.307Z,6.82
2022-10-21T11:10:24.944Z,7.63
2022-10-21T11:12:52.284Z,6.72
2022-10-21T11:15:27.333Z,8.50
2022-10-21T11:18:23.007Z,6.78
2022-10-21T11:21:07.699Z,8.55
2022-10-21T11:24:06.785Z,8.80
2022-10-21T11:27:13.537Z,8.60
2022-10-21T11:29:53.834Z,7.82
2022-10-21T11:32:38.093Z,9.27
2022-10-21T11:35:41.935Z,8.45
2022-10-21T11:38:17.832Z,9.95
2022-10-21T11:40:55.277Z,9.35
2022-10-21T11:43:31.226Z,7.82
2022-10-21T11:46:35.916Z,8.60
2022-10-21T11:49:14.013Z,5.55
2022-10-21T11:52:11.212Z,7.65
2022-10-21T11:55:09.950Z,8.98
2022-10-21T11:58:04.613Z,5.80
2022-10-21T12:00:46.966Z,7.15
2022-10-21T12:03:25.162Z,7.75
2022-10-21T12:06:02.849Z,8.15
2022-10-21T12:08:58.460Z,7.03
2022-10-21T12:11:46.424Z,7.38
2022-10-21T12:14:31.816Z,7.30
2022-10-21T12:17:02.132Z,9.07
2022-10-21T12:19:29.333Z,7.07
2022-10-21T12:21:56.098Z,9.07
2022-10-21T12:24:32.329Z,8.73
2022-10-21T12:27:11.236Z,10.43
2022-10-21T12:29:42.888Z,7.03
2022-10-21T12:32:28.389Z,7.82
2022-10-21T12:34:55.991Z,7.40
2022-10-21T12:38:02.792Z,9.45
2022-10-21T12:40:29.495Z,8.20
2022-10-21T12:43:16.577Z,9.88
2022-10-21T12:45:44.584Z,8.00
2022-10-21T12:48:33.190Z,13.23
2022-10-21T12:51:07.123Z,10.35
2022-10-21T12:53:39.135Z,9.45
2022-10-21T12:56:07.709Z,6.93
2022-10-21T12:58:39.594Z,6.78
2022-10-21T13:01:27.399Z,9.70
2022-10-21T13:03:55.935Z,11.65
2022-10-21T13:06:52.502Z,11.80
2022-10-21T13:09:31.522Z,10.90
2022-10-21T13:12:28.327Z,11.10
2022-10-21T13:15:20.738Z,8.95
2022-10-21T13:17:57.830Z,10.07
2022-10-21T13:20:24.921Z,9.32
2022-10-21T13:23:14.643Z,11.02
2022-10-21T13:25:41.464Z,13.43
2022-10-21T13:28:14.116Z,9.55
2022-10-21T13:30:58.703Z,10.00
2022-10-21T13:33:33.670Z,9.10
2022-10-21T13:36:13.028Z,11.35
2022-10-21T13:38:50.022Z,11.80
2022-10-21T13:41:30.951Z,15.82
2022-10-21T13:44:04.335Z,10.50
2022-10-21T13:46:43.583Z,11.18
2022-10-21T13:49:32.544Z,12.55
2022-10-21T13:51:59.456Z,10.80
2022-10-21T13:54:26.302Z,11.60
2022-10-21T13:56:53.035Z,9.85
2022-10-21T13:59:32.775Z,11.45
2022-10-21T14:01:59.505Z,14.98
2022-10-21T14:04:28.825Z,12.32
2022-10-21T14:07:08.868Z,13.52
2022-10-21T14:09:46.310Z,14.57
2022-10-21T14:12:34.007Z,11.73
2022-10-21T14:15:14.258Z,13.43
2022-10-21T14:17:44.267Z,13.60
2022-10-21T14:20:18.202Z,12.63
2022-10-21T14:22:50.295Z,10.63
2022-10-21T14:25:18.608Z,11.18
2022-10-21T14:27:47.363Z,9.27
2022-10-21T14:30:34.922Z,13.57
2022-10-21T14:33:04.677Z,12.13
2022-10-21T14:35:32.226Z,11.13
2022-10-21T14:38:01.315Z,11.57
2022-10-21T14:40:41.022Z,14.63
2022-10-21T14:43:13.587Z,13.00
2022-10-21T14:46:08.058Z,12.85
2022-10-21T14:48:44.013Z,11.73
2022-10-21T14:51:21.241Z,14.48
2022-10-21T14:54:02.304Z,13.90
2022-10-21T14:56:43.323Z,10.83
2022-10-21T14:59:24.530Z,9.95
2022-10-21T15:01:52.054Z,13.63
2022-10-21T15:04:57.311Z,17.23
2022-10-21T15:10:04.504Z,12.48
2022-10-21T15:12:50.474Z,14.70
2022-10-21T15:15:53.254Z,14.70
2022-10-21T15:18:32.397Z,33.67
2022-10-21T15:21:03.412Z,22.83
2022-10-21T15:23:39.530Z,18.00
2022-10-21T15:26:21.582Z,14.98
2022-10-21T15:28:49.170Z,13.82
2022-10-21T15:31:18.431Z,13.85
2022-10-21T15:33:45.227Z,15.07
2022-10-21T15:36:13.286Z,12.90
2022-10-21T15:38:47.529Z,10.68
2022-10-21T15:41:23.441Z,11.43
2022-10-21T15:43:56.200Z,12.15
2022-10-21T15:46:24.904Z,10.43
2022-10-21T15:48:51.873Z,12.75
2022-10-21T15:51:19.129Z,14.77
2022-10-21T15:53:45.847Z,13.43
2022-10-21T15:56:14.589Z,11.95
2022-10-21T15:58:41.666Z,17.45
2022-10-21T16:01:14.804Z,14.32
2022-10-21T16:03:42.544Z,14.48
2022-10-21T16:06:17.146Z,13.15
2022-10-21T16:08:44.263Z,10.98
2022-10-21T16:11:25.595Z,11.82
2022-10-21T16:14:01.864Z,10.98
2022-10-21T16:16:28.820Z,13.93
2022-10-21T16:53:30.288Z,13.35
2022-10-21T16:55:58.154Z,15.10
2022-10-21T16:58:24.853Z,12.48
2022-10-21T17:00:52.298Z,18.83
2022-10-21T17:03:19.092Z,12.25
2022-10-21T17:05:45.814Z,12.77
2022-10-21T17:08:12.993Z,14.30
2022-10-21T17:10:39.864Z,17.95
2022-10-21T17:13:06.937Z,14.60
2022-10-21T17:15:33.748Z,12.48
2022-10-21T17:18:00.717Z,18.38
2022-10-21T17:20:31.498Z,17.33
2022-10-21T17:23:04.920Z,11.90
2022-10-21T17:25:31.857Z,16.85
2022-10-21T17:27:58.673Z,11.95
2022-10-21T17:30:25.472Z,13.05
2022-10-21T17:32:53.650Z,12.98
2022-10-21T17:35:20.570Z,13.13
2022-10-21T17:37:53.354Z,9.73
2022-10-21T17:40:26.159Z,15.43
2022-10-21T17:42:53.748Z,11.32
2022-10-21T17:45:22.404Z,11.48
2022-10-21T17:47:50.368Z,13.57
2022-10-21T17:50:23.607Z,11.43
2022-10-21T17:52:51.851Z,11.85
2022-10-21T17:55:19.487Z,12.00
2022-10-21T17:57:46.796Z,16.40
2022-10-21T18:00:14.251Z,11.48
2022-10-21T18:02:42.161Z,10.48
2022-10-21T18:05:10.483Z,9.75
2022-10-21T18:07:38.204Z,11.00
2022-10-21T18:10:07.269Z,15.57
2022-10-21T18:12:35.946Z,13.13
2022-10-21T18:15:03.147Z,12.02
2022-10-21T18:17:31.081Z,10.18
2022-10-21T18:19:58.283Z,10.48
2022-10-21T18:22:25.859Z,9.15
2022-10-21T18:24:53.552Z,8.63
2022-10-21T18:27:22.791Z,11.75
2022-10-21T18:29:50.174Z,11.93
2022-10-21T18:32:18.152Z,13.23
2022-10-21T18:34:45.404Z,11.30
2022-10-21T18:37:12.727Z,11.52
2022-10-21T18:39:40.256Z,10.05
2022-10-21T18:42:07.302Z,11.73
2022-10-21T18:44:34.523Z,11.68
2022-10-21T18:47:01.727Z,8.63
2022-10-21T18:49:29.034Z,13.40
2022-10-21T18:51:56.321Z,10.93
2022-10-21T18:54:23.539Z,10.95
2022-10-21T18:56:50.771Z,12.48
2022-10-21T18:59:18.089Z,13.38
2022-10-21T19:01:45.441Z,9.82
2022-10-21T19:06:41.528Z,10.90
2022-10-21T19:09:13.858Z,16.63
2022-10-21T19:11:42.095Z,12.30
2022-10-21T19:14:11.360Z,11.10
2022-10-21T19:16:41.574Z,9.55
2022-10-21T19:19:09.537Z,9.45
2022-10-21T19:21:37.958Z,10.60
2022-10-21T19:24:05.687Z,8.45
2022-10-21T19:26:35.920Z,9.75
2022-10-21T19:29:23.822Z,11.45
2022-10-21T19:31:50.923Z,9.77
2022-10-21T19:34:21.597Z,8.38
2022-10-21T19:36:49.124Z,11.57
2022-10-21T19:39:17.020Z,8.90
2022-10-21T19:41:44.328Z,12.65
2022-10-21T19:44:12.728Z,8.18
2022-10-21T19:46:39.999Z,9.95
2022-10-21T19:49:09.808Z,10.05
2022-10-21T19:51:37.615Z,11.27
2022-10-21T19:54:06.657Z,7.88
2022-10-21T19:56:34.602Z,9.57
2022-10-21T19:59:03.191Z,9.93
2022-10-21T20:01:35.368Z,9.63
2022-10-21T20:04:04.113Z,10.90
2022-10-21T20:06:33.704Z,10.75
2022-10-21T20:09:04.683Z,8.73
2022-10-21T20:11:31.966Z,9.90
2022-10-21T20:14:00.714Z,9.20
2022-10-21T20:16:29.082Z,9.25
2022-10-21T20:18:57.204Z,11.32
2022-10-21T20:21:25.671Z,9.23
2022-10-21T20:23:53.235Z,9.98
2022-10-21T20:26:20.709Z,9.80
2022-10-21T20:28:47.825Z,15.95
2022-10-21T20:31:16.283Z,10.10
2022-10-21T20:33:46.858Z,9.32
2022-10-21T20:36:17.520Z,8.43
2022-10-21T20:38:48.749Z,10.63
2022-10-21T20:41:27.131Z,11.43
2022-10-21T20:43:55.258Z,10.77
2022-10-21T20:46:24.044Z,12.73
2022-10-21T20:48:52.272Z,10.32
2022-10-21T20:51:25.366Z,9.25
2022-10-21T20:53:57.652Z,8.65
2022-10-21T20:56:33.701Z,12.20
2022-10-21T20:59:01.045Z,13.52
2022-10-21T21:01:32.761Z,9.48
2022-10-21T21:04:02.309Z,9.65
2022-10-21T21:06:29.119Z,8.80
2022-10-21T21:09:25.714Z,11.38
2022-10-21T21:11:42.623Z,9.80
2022-10-21T21:14:09.332Z,9.15
2022-10-21T21:16:36.128Z,8.82
2022-10-21T21:19:05.624Z,11.32
2022-10-21T21:21:34.773Z,10.05
2022-10-21T21:24:02.070Z,12.25
2022-10-21T21:26:34.884Z,12.90
2022-10-21T21:29:01.645Z,10.38
2022-10-21T21:31:31.161Z,13.18
2022-10-21T21:33:58.026Z,8.88
2022-10-21T21:36:25.372Z,10.35
2022-10-21T21:38:54.217Z,9.05
2022-10-21T21:41:23.234Z,13.13
2022-10-21T21:43:51.705Z,11.35
2022-10-21T21:46:24.049Z,7.05
2022-10-21T21:48:59.644Z,8.30
2022-10-21T21:51:29.677Z,10.38
2022-10-21T21:53:57.433Z,10.07
2022-10-21T21:56:25.366Z,11.38
2022-10-21T21:58:54.815Z,12.90
2022-10-21T22:01:23.794Z,9.95
2022-10-21T22:03:52.022Z,8.25
2022-10-21T22:06:23.762Z,9.73
2022-10-21T22:08:51.091Z,11.23
2022-10-21T22:11:21.225Z,8.40
2022-10-21T22:13:48.068Z,10.75
2022-10-21T22:16:16.278Z,9.43
2022-10-21T22:18:43.606Z,9.60
2022-10-21T22:21:13.340Z,9.43
2022-10-21T22:23:40.801Z,10.45
2022-10-21T22:26:08.877Z,9.25
2022-10-21T22:28:35.692Z,10.35
2022-10-21T22:31:08.619Z,9.52
2022-10-21T22:33:35.887Z,8.70
2022-10-21T22:36:03.638Z,8.88
2022-10-21T22:38:30.455Z,7.03
2022-10-21T22:40:59.403Z,12.02
2022-10-21T22:43:27.257Z,8.77
2022-10-21T22:46:01.145Z,9.57
2022-10-21T22:48:41.229Z,9.18
2022-10-21T22:51:07.930Z,7.50
2022-10-21T22:53:35.528Z,14.23
2022-10-21T22:56:02.480Z,9.88
2022-10-21T22:58:29.285Z,7.57
2022-10-21T23:03:27.605Z,9.68
2022-10-21T23:05:54.339Z,11.63
2022-10-21T23:08:21.239Z,9.27
2022-10-21T23:10:49.215Z,6.00
2022-10-21T23:13:16.470Z,9.57
2022-10-21T23:15:43.992Z,7.00
2022-10-21T23:18:10.922Z,8.95
2022-10-21T23:20:37.756Z,12.00
2022-10-21T23:23:04.573Z,8.50
2022-10-21T23:25:31.253Z,10.05
2022-10-21T23:27:58.086Z,6.70
2022-10-21T23:30:24.989Z,7.88
2022-10-21T23:32:51.828Z,7.13
2022-10-21T23:35:18.871Z,7.18
2022-10-21T23:37:45.807Z,7.10
2022-10-21T23:40:13.469Z,7.43
2022-10-21T23:42:42.827Z,6.20
2022-10-21T23:45:11.550Z,8.18
2022-10-21T23:47:39.862Z,7.00
2022-10-21T23:50:08.810Z,8.77
2022-10-21T23:52:37.118Z,7.20
2022-10-21T23:55:08.265Z,9.77
2022-10-21T23:57:35.552Z,8.35
